sensor_id;sensor_type;location;lat;lon;timestamp;temperature;humidity
20479;DHT22;10398;52.490;13.434;2022-10-10T00:00:37;9.90;99.90
20479;DHT22;10398;52.490;13.434;2022-10-10T00:03:03;9.90;99.90
20479;DHT22;10398;52.490;13.434;2022-10-10T00:05:29;9.90;99.90
20479;DHT22;10398;52.490;13.434;2022-10-10T00:07:55;9.90;99.90
20479;DHT22;10398;52.490;13.434;2022-10-10T00:10:21;9.90;99.90
20479;DHT22;10398;52.490;13.434;2022-10-10T00:12:47;9.90;99.90
20479;DHT22;10398;52.490;13.434;2022-10-10T00:15:13;9.80;99.90
20479;DHT22;10398;52.490;13.434;2022-10-10T00:17:39;9.80;99.90
20479;DHT22;10398;52.490;13.434;2022-10-10T00:20:08;9.80;99.90
20479;DHT22;10398;52.490;13.434;2022-10-10T00:22:34;9.80;99.90
20479;DHT22;10398;52.490;13.434;2022-10-10T00:24:59;9.80;99.90
20479;DHT22;10398;52.490;13.434;2022-10-10T00:27:25;9.80;99.90
20479;DHT22;10398;52.490;13.434;2022-10-10T00:29:50;9.70;99.90
20479;DHT22;10398;52.490;13.434;2022-10-10T00:32:16;9.70;99.90
20479;DHT22;10398;52.490;13.434;2022-10-10T00:34:41;9.80;99.90
20479;DHT22;10398;52.490;13.434;2022-10-10T00:37:07;9.80;99.90
20479;DHT22;10398;52.490;13.434;2022-10-10T00:39:33;9.80;99.90
20479;DHT22;10398;52.490;13.434;2022-10-10T00:41:59;9.70;99.90
20479;DHT22;10398;52.490;13.434;2022-10-10T00:44:26;9.70;99.90
20479;DHT22;10398;52.490;13.434;2022-10-10T00:46:51;9.60;99.90
20479;DHT22;10398;52.490;13.434;2022-10-10T00:49:21;9.60;99.90
20479;DHT22;10398;52.490;13.434;2022-10-10T00:51:51;9.60;99.90
20479;DHT22;10398;52.490;13.434;2022-10-10T00:54:19;9.60;99.90
20479;DHT22;10398;52.490;13.434;2022-10-10T00:56:50;9.70;99.90
20479;DHT22;10398;52.490;13.434;2022-10-10T00:59:17;9.60;99.90
20479;DHT22;10398;52.490;13.434;2022-10-10T01:01:44;9.60;99.90
20479;DHT22;10398;52.490;13.434;2022-10-10T01:04:33;9.60;99.90
20479;DHT22;10398;52.490;13.434;2022-10-10T01:07:02;9.50;99.90
20479;DHT22;10398;52.490;13.434;2022-10-10T01:09:28;9.50;99.90
20479;DHT22;10398;52.490;13.434;2022-10-10T01:12:19;9.50;99.90
20479;DHT22;10398;52.490;13.434;2022-10-10T01:14:47;9.50;99.90
20479;DHT22;10398;52.490;13.434;2022-10-10T01:31:11;9.50;99.90
20479;DHT22;10398;52.490;13.434;2022-10-10T01:36:31;9.40;99.90
20479;DHT22;10398;52.490;13.434;2022-10-10T01:39:10;9.40;99.90
20479;DHT22;10398;52.490;13.434;2022-10-10T01:41:46;9.40;99.90
20479;DHT22;10398;52.490;13.434;2022-10-10T01:44:15;9.40;99.90
20479;DHT22;10398;52.490;13.434;2022-10-10T01:46:41;9.40;99.90
20479;DHT22;10398;52.490;13.434;2022-10-10T01:49:06;9.40;99.90
20479;DHT22;10398;52.490;13.434;2022-10-10T01:59:59;9.20;99.90
20479;DHT22;10398;52.490;13.434;2022-10-10T02:07:49;9.20;99.90
20479;DHT22;10398;52.490;13.434;2022-10-10T02:10:21;9.10;99.90
20479;DHT22;10398;52.490;13.434;2022-10-10T02:12:49;9.10;99.90
20479;DHT22;10398;52.490;13.434;2022-10-10T02:15:18;9.20;99.90
20479;DHT22;10398;52.490;13.434;2022-10-10T02:17:47;9.10;99.90
20479;DHT22;10398;52.490;13.434;2022-10-10T02:20:17;9.00;99.90
20479;DHT22;10398;52.490;13.434;2022-10-10T02:22:44;9.00;99.90
20479;DHT22;10398;52.490;13.434;2022-10-10T02:25:11;9.10;99.90
20479;DHT22;10398;52.490;13.434;2022-10-10T02:27:53;9.00;99.90
20479;DHT22;10398;52.490;13.434;2022-10-10T02:30:22;9.00;99.90
20479;DHT22;10398;52.490;13.434;2022-10-10T02:32:52;8.90;99.90
20479;DHT22;10398;52.490;13.434;2022-10-10T02:35:24;8.90;99.90
20479;DHT22;10398;52.490;13.434;2022-10-10T02:37:53;8.90;99.90
20479;DHT22;10398;52.490;13.434;2022-10-10T02:40:25;8.90;99.90
20479;DHT22;10398;52.490;13.434;2022-10-10T02:42:52;8.90;99.90
20479;DHT22;10398;52.490;13.434;2022-10-10T02:45:20;8.90;99.90
20479;DHT22;10398;52.490;13.434;2022-10-10T02:47:46;8.90;99.90
20479;DHT22;10398;52.490;13.434;2022-10-10T02:50:11;8.90;99.90
20479;DHT22;10398;52.490;13.434;2022-10-10T02:52:37;9.00;99.90
20479;DHT22;10398;52.490;13.434;2022-10-10T02:55:03;9.00;99.90
20479;DHT22;10398;52.490;13.434;2022-10-10T02:57:29;8.90;99.90
20479;DHT22;10398;52.490;13.434;2022-10-10T02:59:54;8.80;99.90
20479;DHT22;10398;52.490;13.434;2022-10-10T03:02:20;8.90;99.90
20479;DHT22;10398;52.490;13.434;2022-10-10T03:04:46;8.90;99.90
20479;DHT22;10398;52.490;13.434;2022-10-10T03:07:11;8.90;99.90
20479;DHT22;10398;52.490;13.434;2022-10-10T03:09:37;8.90;99.90
20479;DHT22;10398;52.490;13.434;2022-10-10T03:12:03;8.90;99.90
20479;DHT22;10398;52.490;13.434;2022-10-10T03:14:29;8.80;99.90
20479;DHT22;10398;52.490;13.434;2022-10-10T03:16:54;8.80;99.90
20479;DHT22;10398;52.490;13.434;2022-10-10T03:19:20;8.70;99.90
20479;DHT22;10398;52.490;13.434;2022-10-10T03:21:45;8.60;99.90
20479;DHT22;10398;52.490;13.434;2022-10-10T03:24:11;8.60;99.90
20479;DHT22;10398;52.490;13.434;2022-10-10T03:26:37;8.60;99.90
20479;DHT22;10398;52.490;13.434;2022-10-10T03:29:03;8.60;99.90
20479;DHT22;10398;52.490;13.434;2022-10-10T03:31:29;8.60;99.90
20479;DHT22;10398;52.490;13.434;2022-10-10T03:33:55;8.60;99.90
20479;DHT22;10398;52.490;13.434;2022-10-10T03:36:21;8.60;99.90
20479;DHT22;10398;52.490;13.434;2022-10-10T03:38:47;8.50;99.90
20479;DHT22;10398;52.490;13.434;2022-10-10T03:41:12;8.50;99.90
20479;DHT22;10398;52.490;13.434;2022-10-10T03:43:38;8.50;99.90
20479;DHT22;10398;52.490;13.434;2022-10-10T03:46:03;8.50;99.90
20479;DHT22;10398;52.490;13.434;2022-10-10T03:48:29;8.50;99.90
20479;DHT22;10398;52.490;13.434;2022-10-10T03:50:54;8.50;99.90
20479;DHT22;10398;52.490;13.434;2022-10-10T03:53:20;8.40;99.90
20479;DHT22;10398;52.490;13.434;2022-10-10T03:55:45;8.40;99.90
20479;DHT22;10398;52.490;13.434;2022-10-10T03:58:11;8.40;99.90
20479;DHT22;10398;52.490;13.434;2022-10-10T04:00:37;8.40;99.90
20479;DHT22;10398;52.490;13.434;2022-10-10T04:03:03;8.40;99.90
20479;DHT22;10398;52.490;13.434;2022-10-10T04:05:36;8.40;99.90
20479;DHT22;10398;52.490;13.434;2022-10-10T04:08:02;8.40;99.90
20479;DHT22;10398;52.490;13.434;2022-10-10T04:10:28;8.40;99.90
20479;DHT22;10398;52.490;13.434;2022-10-10T04:12:54;8.40;99.90
20479;DHT22;10398;52.490;13.434;2022-10-10T04:15:19;8.40;99.90
20479;DHT22;10398;52.490;13.434;2022-10-10T04:17:45;8.40;99.90
20479;DHT22;10398;52.490;13.434;2022-10-10T04:20:11;8.40;99.90
20479;DHT22;10398;52.490;13.434;2022-10-10T04:22:36;8.40;99.90
20479;DHT22;10398;52.490;13.434;2022-10-10T04:25:02;8.40;99.90
20479;DHT22;10398;52.490;13.434;2022-10-10T04:27:28;8.40;99.90
20479;DHT22;10398;52.490;13.434;2022-10-10T04:29:53;8.40;99.90
20479;DHT22;10398;52.490;13.434;2022-10-10T04:32:19;8.40;99.90
20479;DHT22;10398;52.490;13.434;2022-10-10T04:34:44;8.40;99.90
20479;DHT22;10398;52.490;13.434;2022-10-10T04:37:10;8.30;99.90
20479;DHT22;10398;52.490;13.434;2022-10-10T04:39:35;8.40;99.90
20479;DHT22;10398;52.490;13.434;2022-10-10T04:42:01;8.40;99.90
20479;DHT22;10398;52.490;13.434;2022-10-10T04:44:27;8.40;99.90
20479;DHT22;10398;52.490;13.434;2022-10-10T04:46:52;8.30;99.90
20479;DHT22;10398;52.490;13.434;2022-10-10T04:49:18;8.40;99.90
20479;DHT22;10398;52.490;13.434;2022-10-10T04:51:44;8.30;99.90
20479;DHT22;10398;52.490;13.434;2022-10-10T04:54:09;8.40;99.90
20479;DHT22;10398;52.490;13.434;2022-10-10T04:56:35;8.40;99.90
20479;DHT22;10398;52.490;13.434;2022-10-10T04:59:01;8.40;99.90
20479;DHT22;10398;52.490;13.434;2022-10-10T05:01:26;8.40;99.90
20479;DHT22;10398;52.490;13.434;2022-10-10T05:03:52;8.40;99.90
20479;DHT22;10398;52.490;13.434;2022-10-10T05:06:18;8.40;99.90
20479;DHT22;10398;52.490;13.434;2022-10-10T05:08:44;8.40;99.90
20479;DHT22;10398;52.490;13.434;2022-10-10T05:11:09;8.40;99.90
20479;DHT22;10398;52.490;13.434;2022-10-10T05:13:35;8.40;99.90
20479;DHT22;10398;52.490;13.434;2022-10-10T05:16:00;8.40;99.90
20479;DHT22;10398;52.490;13.434;2022-10-10T05:18:26;8.40;99.90
20479;DHT22;10398;52.490;13.434;2022-10-10T05:20:52;8.40;99.90
20479;DHT22;10398;52.490;13.434;2022-10-10T05:23:17;8.20;99.90
20479;DHT22;10398;52.490;13.434;2022-10-10T05:25:44;8.20;99.90
20479;DHT22;10398;52.490;13.434;2022-10-10T05:28:11;8.20;99.90
20479;DHT22;10398;52.490;13.434;2022-10-10T05:30:37;8.20;99.90
20479;DHT22;10398;52.490;13.434;2022-10-10T05:33:04;8.10;99.90
20479;DHT22;10398;52.490;13.434;2022-10-10T05:35:30;8.10;99.90
20479;DHT22;10398;52.490;13.434;2022-10-10T05:37:55;8.10;99.90
20479;DHT22;10398;52.490;13.434;2022-10-10T05:40:21;8.00;99.90
20479;DHT22;10398;52.490;13.434;2022-10-10T05:42:47;8.00;99.90
20479;DHT22;10398;52.490;13.434;2022-10-10T05:45:13;8.10;99.90
20479;DHT22;10398;52.490;13.434;2022-10-10T05:47:39;8.10;99.90
20479;DHT22;10398;52.490;13.434;2022-10-10T05:50:05;8.10;99.90
20479;DHT22;10398;52.490;13.434;2022-10-10T05:52:31;8.10;99.90
20479;DHT22;10398;52.490;13.434;2022-10-10T05:54:57;8.00;99.90
20479;DHT22;10398;52.490;13.434;2022-10-10T05:57:22;8.10;99.90
20479;DHT22;10398;52.490;13.434;2022-10-10T05:59:48;8.10;99.90
20479;DHT22;10398;52.490;13.434;2022-10-10T06:02:14;8.10;99.90
20479;DHT22;10398;52.490;13.434;2022-10-10T06:04:39;8.10;99.90
20479;DHT22;10398;52.490;13.434;2022-10-10T06:07:05;8.20;99.90
20479;DHT22;10398;52.490;13.434;2022-10-10T06:09:31;8.20;99.90
20479;DHT22;10398;52.490;13.434;2022-10-10T06:11:56;8.20;99.90
20479;DHT22;10398;52.490;13.434;2022-10-10T06:14:22;8.10;99.90
20479;DHT22;10398;52.490;13.434;2022-10-10T06:16:47;8.20;99.90
20479;DHT22;10398;52.490;13.434;2022-10-10T06:19:13;8.10;99.90
20479;DHT22;10398;52.490;13.434;2022-10-10T06:21:39;8.20;99.90
20479;DHT22;10398;52.490;13.434;2022-10-10T06:24:05;8.30;99.90
20479;DHT22;10398;52.490;13.434;2022-10-10T06:26:31;8.30;99.90
20479;DHT22;10398;52.490;13.434;2022-10-10T06:28:56;8.40;99.90
20479;DHT22;10398;52.490;13.434;2022-10-10T06:31:22;8.40;99.90
20479;DHT22;10398;52.490;13.434;2022-10-10T06:33:47;8.30;99.90
20479;DHT22;10398;52.490;13.434;2022-10-10T06:36:16;8.40;99.90
20479;DHT22;10398;52.490;13.434;2022-10-10T06:38:43;8.30;99.90
20479;DHT22;10398;52.490;13.434;2022-10-10T06:41:10;8.30;99.90
20479;DHT22;10398;52.490;13.434;2022-10-10T06:43:36;8.40;99.90
20479;DHT22;10398;52.490;13.434;2022-10-10T06:46:03;8.40;99.90
20479;DHT22;10398;52.490;13.434;2022-10-10T06:48:29;8.50;99.90
20479;DHT22;10398;52.490;13.434;2022-10-10T06:51:04;8.60;99.90
20479;DHT22;10398;52.490;13.434;2022-10-10T06:53:31;8.70;99.90
20479;DHT22;10398;52.490;13.434;2022-10-10T06:55:57;8.80;99.90
20479;DHT22;10398;52.490;13.434;2022-10-10T06:58:24;8.80;99.90
20479;DHT22;10398;52.490;13.434;2022-10-10T07:00:55;8.90;99.90
20479;DHT22;10398;52.490;13.434;2022-10-10T07:03:21;9.00;99.90
20479;DHT22;10398;52.490;13.434;2022-10-10T07:05:52;9.00;99.90
20479;DHT22;10398;52.490;13.434;2022-10-10T07:08:18;9.00;99.90
20479;DHT22;10398;52.490;13.434;2022-10-10T07:10:44;9.10;99.90
20479;DHT22;10398;52.490;13.434;2022-10-10T07:13:09;9.10;99.90
20479;DHT22;10398;52.490;13.434;2022-10-10T07:15:35;9.10;99.90
20479;DHT22;10398;52.490;13.434;2022-10-10T07:18:01;9.20;99.90
20479;DHT22;10398;52.490;13.434;2022-10-10T07:20:26;9.20;99.90
20479;DHT22;10398;52.490;13.434;2022-10-10T07:22:52;9.20;99.90
20479;DHT22;10398;52.490;13.434;2022-10-10T07:25:18;9.30;99.90
20479;DHT22;10398;52.490;13.434;2022-10-10T07:27:44;9.30;99.90
20479;DHT22;10398;52.490;13.434;2022-10-10T07:30:10;9.30;99.90
20479;DHT22;10398;52.490;13.434;2022-10-10T07:32:35;9.40;99.90
20479;DHT22;10398;52.490;13.434;2022-10-10T07:35:01;9.40;99.90
20479;DHT22;10398;52.490;13.434;2022-10-10T07:37:27;9.40;99.90
20479;DHT22;10398;52.490;13.434;2022-10-10T07:39:52;9.50;99.90
20479;DHT22;10398;52.490;13.434;2022-10-10T07:42:18;9.50;99.90
20479;DHT22;10398;52.490;13.434;2022-10-10T07:44:44;9.50;99.90
20479;DHT22;10398;52.490;13.434;2022-10-10T07:47:09;9.60;99.90
20479;DHT22;10398;52.490;13.434;2022-10-10T07:49:35;9.80;99.90
20479;DHT22;10398;52.490;13.434;2022-10-10T07:52:00;9.80;99.90
20479;DHT22;10398;52.490;13.434;2022-10-10T07:54:27;9.90;99.90
20479;DHT22;10398;52.490;13.434;2022-10-10T07:56:53;10.00;99.90
20479;DHT22;10398;52.490;13.434;2022-10-10T07:59:19;10.10;99.90
20479;DHT22;10398;52.490;13.434;2022-10-10T08:01:44;10.20;99.90
20479;DHT22;10398;52.490;13.434;2022-10-10T08:04:10;10.20;99.90
20479;DHT22;10398;52.490;13.434;2022-10-10T08:06:35;10.30;99.90
20479;DHT22;10398;52.490;13.434;2022-10-10T08:09:01;10.30;99.90
20479;DHT22;10398;52.490;13.434;2022-10-10T08:11:27;10.30;99.90
20479;DHT22;10398;52.490;13.434;2022-10-10T08:13:52;10.40;99.90
20479;DHT22;10398;52.490;13.434;2022-10-10T08:16:18;10.40;99.90
20479;DHT22;10398;52.490;13.434;2022-10-10T08:18:44;10.40;99.90
20479;DHT22;10398;52.490;13.434;2022-10-10T08:21:11;10.40;99.90
20479;DHT22;10398;52.490;13.434;2022-10-10T08:23:38;10.40;99.90
20479;DHT22;10398;52.490;13.434;2022-10-10T08:26:06;10.60;99.90
20479;DHT22;10398;52.490;13.434;2022-10-10T08:28:32;10.70;99.90
20479;DHT22;10398;52.490;13.434;2022-10-10T08:30:58;10.90;99.90
20479;DHT22;10398;52.490;13.434;2022-10-10T08:33:27;11.10;99.90
20479;DHT22;10398;52.490;13.434;2022-10-10T08:35:53;11.30;99.90
20479;DHT22;10398;52.490;13.434;2022-10-10T08:38:19;11.50;99.90
20479;DHT22;10398;52.490;13.434;2022-10-10T08:40:47;11.60;99.90
20479;DHT22;10398;52.490;13.434;2022-10-10T08:43:26;11.80;99.90
20479;DHT22;10398;52.490;13.434;2022-10-10T08:45:54;11.90;99.90
20479;DHT22;10398;52.490;13.434;2022-10-10T08:48:24;12.10;99.90
20479;DHT22;10398;52.490;13.434;2022-10-10T08:50:58;12.20;99.90
20479;DHT22;10398;52.490;13.434;2022-10-10T08:53:39;12.40;99.90
20479;DHT22;10398;52.490;13.434;2022-10-10T08:56:06;12.50;99.90
20479;DHT22;10398;52.490;13.434;2022-10-10T08:58:36;12.70;99.90
20479;DHT22;10398;52.490;13.434;2022-10-10T09:01:23;12.80;99.90
20479;DHT22;10398;52.490;13.434;2022-10-10T09:03:52;13.00;99.90
20479;DHT22;10398;52.490;13.434;2022-10-10T09:09:53;13.30;99.90
20479;DHT22;10398;52.490;13.434;2022-10-10T09:12:47;13.50;99.90
20479;DHT22;10398;52.490;13.434;2022-10-10T09:15:24;13.70;99.90
20479;DHT22;10398;52.490;13.434;2022-10-10T09:17:56;13.80;99.90
20479;DHT22;10398;52.490;13.434;2022-10-10T09:25:41;14.30;99.90
20479;DHT22;10398;52.490;13.434;2022-10-10T09:28:18;14.30;99.90
20479;DHT22;10398;52.490;13.434;2022-10-10T09:30:49;14.50;99.90
20479;DHT22;10398;52.490;13.434;2022-10-10T09:33:30;14.80;99.90
20479;DHT22;10398;52.490;13.434;2022-10-10T09:36:00;15.10;99.90
20479;DHT22;10398;52.490;13.434;2022-10-10T09:38:52;15.40;99.90
20479;DHT22;10398;52.490;13.434;2022-10-10T09:42:04;15.40;99.90
20479;DHT22;10398;52.490;13.434;2022-10-10T09:44:08;15.60;99.90
20479;DHT22;10398;52.490;13.434;2022-10-10T09:46:35;15.70;99.90
20479;DHT22;10398;52.490;13.434;2022-10-10T09:49:02;16.00;99.90
20479;DHT22;10398;52.490;13.434;2022-10-10T09:51:28;16.00;99.90
20479;DHT22;10398;52.490;13.434;2022-10-10T09:53:55;16.10;99.90
20479;DHT22;10398;52.490;13.434;2022-10-10T09:56:30;16.30;99.90
20479;DHT22;10398;52.490;13.434;2022-10-10T09:58:56;16.60;99.90
20479;DHT22;10398;52.490;13.434;2022-10-10T10:01:26;16.90;99.90
20479;DHT22;10398;52.490;13.434;2022-10-10T10:04:22;17.10;99.90
20479;DHT22;10398;52.490;13.434;2022-10-10T10:07:05;17.20;99.90
20479;DHT22;10398;52.490;13.434;2022-10-10T10:09:34;17.00;99.90
20479;DHT22;10398;52.490;13.434;2022-10-10T10:12:00;16.90;99.90
20479;DHT22;10398;52.490;13.434;2022-10-10T10:14:34;16.80;99.90
20479;DHT22;10398;52.490;13.434;2022-10-10T10:17:15;16.50;99.90
20479;DHT22;10398;52.490;13.434;2022-10-10T10:19:43;16.30;99.90
20479;DHT22;10398;52.490;13.434;2022-10-10T10:22:32;16.20;99.90
20479;DHT22;10398;52.490;13.434;2022-10-10T10:25:26;16.00;99.90
20479;DHT22;10398;52.490;13.434;2022-10-10T10:27:45;15.80;99.90
20479;DHT22;10398;52.490;13.434;2022-10-10T10:30:23;15.80;99.90
20479;DHT22;10398;52.490;13.434;2022-10-10T10:33:06;15.80;99.90
20479;DHT22;10398;52.490;13.434;2022-10-10T10:38:47;16.00;99.90
20479;DHT22;10398;52.490;13.434;2022-10-10T10:41:28;15.90;99.90
20479;DHT22;10398;52.490;13.434;2022-10-10T10:44:25;16.00;99.90
20479;DHT22;10398;52.490;13.434;2022-10-10T10:47:25;16.10;99.90
20479;DHT22;10398;52.490;13.434;2022-10-10T10:50:27;16.20;99.90
20479;DHT22;10398;52.490;13.434;2022-10-10T11:19:10;17.10;99.90
20479;DHT22;10398;52.490;13.434;2022-10-10T11:21:42;17.20;99.90
20479;DHT22;10398;52.490;13.434;2022-10-10T11:24:14;17.20;99.90
20479;DHT22;10398;52.490;13.434;2022-10-10T11:26:47;17.30;99.90
20479;DHT22;10398;52.490;13.434;2022-10-10T11:29:20;17.20;99.90
20479;DHT22;10398;52.490;13.434;2022-10-10T11:31:56;17.30;99.90
20479;DHT22;10398;52.490;13.434;2022-10-10T11:34:28;17.30;99.90
20479;DHT22;10398;52.490;13.434;2022-10-10T11:37:02;17.40;99.90
20479;DHT22;10398;52.490;13.434;2022-10-10T11:39:35;17.30;99.90
20479;DHT22;10398;52.490;13.434;2022-10-10T11:42:10;17.40;99.90
20479;DHT22;10398;52.490;13.434;2022-10-10T11:44:42;17.50;99.90
20479;DHT22;10398;52.490;13.434;2022-10-10T11:47:21;17.60;99.90
20479;DHT22;10398;52.490;13.434;2022-10-10T11:52:51;17.80;99.90
20479;DHT22;10398;52.490;13.434;2022-10-10T11:55:58;17.90;99.90
20479;DHT22;10398;52.490;13.434;2022-10-10T11:58:37;18.00;99.90
20479;DHT22;10398;52.490;13.434;2022-10-10T12:01:30;18.00;99.90
20479;DHT22;10398;52.490;13.434;2022-10-10T12:03:56;18.20;99.90
20479;DHT22;10398;52.490;13.434;2022-10-10T12:12:03;18.60;99.90
20479;DHT22;10398;52.490;13.434;2022-10-10T12:14:31;18.70;99.90
20479;DHT22;10398;52.490;13.434;2022-10-10T12:16:58;18.90;99.90
20479;DHT22;10398;52.490;13.434;2022-10-10T12:19:26;19.00;99.90
20479;DHT22;10398;52.490;13.434;2022-10-10T12:22:04;19.10;99.90
20479;DHT22;10398;52.490;13.434;2022-10-10T12:24:35;19.30;99.90
20479;DHT22;10398;52.490;13.434;2022-10-10T12:37:30;20.30;99.90
20479;DHT22;10398;52.490;13.434;2022-10-10T12:42:37;20.20;99.90
20479;DHT22;10398;52.490;13.434;2022-10-10T12:47:56;20.00;99.90
20479;DHT22;10398;52.490;13.434;2022-10-10T12:50:31;20.00;99.90
20479;DHT22;10398;52.490;13.434;2022-10-10T12:53:04;19.80;99.90
20479;DHT22;10398;52.490;13.434;2022-10-10T12:58:01;19.60;99.90
20479;DHT22;10398;52.490;13.434;2022-10-10T13:00:44;19.60;99.90
20479;DHT22;10398;52.490;13.434;2022-10-10T13:03:32;19.70;99.90
20479;DHT22;10398;52.490;13.434;2022-10-10T13:06:04;19.70;99.90
20479;DHT22;10398;52.490;13.434;2022-10-10T13:08:31;20.10;99.90
20479;DHT22;10398;52.490;13.434;2022-10-10T13:11:07;20.20;99.90
20479;DHT22;10398;52.490;13.434;2022-10-10T13:13:33;20.40;99.90
20479;DHT22;10398;52.490;13.434;2022-10-10T13:16:08;20.30;99.90
20479;DHT22;10398;52.490;13.434;2022-10-10T13:18:52;20.00;99.90
20479;DHT22;10398;52.490;13.434;2022-10-10T13:21:24;19.60;99.90
20479;DHT22;10398;52.490;13.434;2022-10-10T13:23:54;19.50;99.90
20479;DHT22;10398;52.490;13.434;2022-10-10T13:28:57;19.20;99.90
20479;DHT22;10398;52.490;13.434;2022-10-10T13:31:26;19.10;99.90
20479;DHT22;10398;52.490;13.434;2022-10-10T13:34:02;19.20;99.90
20479;DHT22;10398;52.490;13.434;2022-10-10T13:36:30;19.30;99.90
20479;DHT22;10398;52.490;13.434;2022-10-10T13:38:56;19.50;99.90
20479;DHT22;10398;52.490;13.434;2022-10-10T13:41:23;19.50;99.90
20479;DHT22;10398;52.490;13.434;2022-10-10T13:43:49;19.30;99.90
20479;DHT22;10398;52.490;13.434;2022-10-10T13:46:30;19.20;99.90
20479;DHT22;10398;52.490;13.434;2022-10-10T13:48:57;19.00;99.90
20479;DHT22;10398;52.490;13.434;2022-10-10T13:51:42;19.00;99.90
20479;DHT22;10398;52.490;13.434;2022-10-10T13:57:13;18.70;99.90
20479;DHT22;10398;52.490;13.434;2022-10-10T13:59:40;18.80;99.90
20479;DHT22;10398;52.490;13.434;2022-10-10T14:02:16;18.90;99.90
20479;DHT22;10398;52.490;13.434;2022-10-10T14:04:48;19.10;99.90
20479;DHT22;10398;52.490;13.434;2022-10-10T14:07:27;19.20;99.90
20479;DHT22;10398;52.490;13.434;2022-10-10T14:10:00;19.20;99.90
20479;DHT22;10398;52.490;13.434;2022-10-10T14:12:55;19.40;99.90
20479;DHT22;10398;52.490;13.434;2022-10-10T14:16:08;19.60;99.90
20479;DHT22;10398;52.490;13.434;2022-10-10T14:18:34;19.50;99.90
20479;DHT22;10398;52.490;13.434;2022-10-10T14:21:02;19.60;99.90
20479;DHT22;10398;52.490;13.434;2022-10-10T14:23:28;19.60;99.90
20479;DHT22;10398;52.490;13.434;2022-10-10T14:25:53;19.50;99.90
20479;DHT22;10398;52.490;13.434;2022-10-10T14:28:30;19.40;99.90
20479;DHT22;10398;52.490;13.434;2022-10-10T14:30:55;19.50;99.90
20479;DHT22;10398;52.490;13.434;2022-10-10T14:33:22;19.50;99.90
20479;DHT22;10398;52.490;13.434;2022-10-10T14:35:49;19.50;99.90
20479;DHT22;10398;52.490;13.434;2022-10-10T14:38:15;19.40;99.90
20479;DHT22;10398;52.490;13.434;2022-10-10T14:40:44;19.20;99.90
20479;DHT22;10398;52.490;13.434;2022-10-10T14:43:10;19.20;99.90
20479;DHT22;10398;52.490;13.434;2022-10-10T14:45:35;19.20;99.90
20479;DHT22;10398;52.490;13.434;2022-10-10T14:48:01;19.20;99.90
20479;DHT22;10398;52.490;13.434;2022-10-10T14:50:31;19.20;99.90
20479;DHT22;10398;52.490;13.434;2022-10-10T14:52:57;19.10;99.90
20479;DHT22;10398;52.490;13.434;2022-10-10T14:55:23;18.90;99.90
20479;DHT22;10398;52.490;13.434;2022-10-10T14:57:48;18.90;99.90
20479;DHT22;10398;52.490;13.434;2022-10-10T15:00:16;18.70;99.90
20479;DHT22;10398;52.490;13.434;2022-10-10T15:02:43;18.70;99.90
20479;DHT22;10398;52.490;13.434;2022-10-10T15:05:08;18.60;99.90
20479;DHT22;10398;52.490;13.434;2022-10-10T15:07:34;18.50;99.90
20479;DHT22;10398;52.490;13.434;2022-10-10T15:10:00;18.40;99.90
20479;DHT22;10398;52.490;13.434;2022-10-10T15:12:26;18.20;99.90
20479;DHT22;10398;52.490;13.434;2022-10-10T15:14:51;18.20;99.90
20479;DHT22;10398;52.490;13.434;2022-10-10T15:17:17;18.10;99.90
20479;DHT22;10398;52.490;13.434;2022-10-10T15:19:43;18.00;99.90
20479;DHT22;10398;52.490;13.434;2022-10-10T15:22:08;18.00;99.90
20479;DHT22;10398;52.490;13.434;2022-10-10T15:24:34;18.00;99.90
20479;DHT22;10398;52.490;13.434;2022-10-10T15:27:00;17.90;99.90
20479;DHT22;10398;52.490;13.434;2022-10-10T15:29:26;17.80;99.90
20479;DHT22;10398;52.490;13.434;2022-10-10T15:31:52;17.70;99.90
20479;DHT22;10398;52.490;13.434;2022-10-10T15:34:19;17.70;99.90
20479;DHT22;10398;52.490;13.434;2022-10-10T15:36:46;17.60;99.90
20479;DHT22;10398;52.490;13.434;2022-10-10T15:39:12;17.60;99.90
20479;DHT22;10398;52.490;13.434;2022-10-10T15:44:15;17.50;99.90
20479;DHT22;10398;52.490;13.434;2022-10-10T15:46:42;17.40;99.90
20479;DHT22;10398;52.490;13.434;2022-10-10T15:49:08;17.30;99.90
20479;DHT22;10398;52.490;13.434;2022-10-10T15:51:34;17.30;99.90
20479;DHT22;10398;52.490;13.434;2022-10-10T15:54:00;17.20;99.90
20479;DHT22;10398;52.490;13.434;2022-10-10T15:56:26;17.20;99.90
20479;DHT22;10398;52.490;13.434;2022-10-10T15:58:55;17.20;99.90
20479;DHT22;10398;52.490;13.434;2022-10-10T16:01:21;17.10;99.90
20479;DHT22;10398;52.490;13.434;2022-10-10T16:03:47;17.10;99.90
20479;DHT22;10398;52.490;13.434;2022-10-10T16:06:15;17.00;99.90
20479;DHT22;10398;52.490;13.434;2022-10-10T16:08:41;17.00;99.90
20479;DHT22;10398;52.490;13.434;2022-10-10T16:11:10;17.00;99.90
20479;DHT22;10398;52.490;13.434;2022-10-10T16:13:37;16.90;99.90
20479;DHT22;10398;52.490;13.434;2022-10-10T16:16:06;16.80;99.90
20479;DHT22;10398;52.490;13.434;2022-10-10T16:18:34;16.80;99.90
20479;DHT22;10398;52.490;13.434;2022-10-10T16:21:00;16.70;99.90
20479;DHT22;10398;52.490;13.434;2022-10-10T16:23:25;16.70;99.90
20479;DHT22;10398;52.490;13.434;2022-10-10T16:26:12;16.60;99.90
20479;DHT22;10398;52.490;13.434;2022-10-10T16:28:38;16.50;99.90
20479;DHT22;10398;52.490;13.434;2022-10-10T16:31:05;16.50;99.90
20479;DHT22;10398;52.490;13.434;2022-10-10T16:33:35;16.50;99.90
20479;DHT22;10398;52.490;13.434;2022-10-10T16:36:11;16.40;99.90
20479;DHT22;10398;52.490;13.434;2022-10-10T16:38:37;16.40;99.90
20479;DHT22;10398;52.490;13.434;2022-10-10T16:41:04;16.40;99.90
20479;DHT22;10398;52.490;13.434;2022-10-10T16:43:30;16.30;99.90
20479;DHT22;10398;52.490;13.434;2022-10-10T16:46:02;16.30;99.90
20479;DHT22;10398;52.490;13.434;2022-10-10T16:48:33;16.20;99.90
20479;DHT22;10398;52.490;13.434;2022-10-10T16:51:06;16.20;99.90
20479;DHT22;10398;52.490;13.434;2022-10-10T16:53:33;16.10;99.90
20479;DHT22;10398;52.490;13.434;2022-10-10T16:56:00;16.10;99.90
20479;DHT22;10398;52.490;13.434;2022-10-10T16:58:27;16.00;99.90
20479;DHT22;10398;52.490;13.434;2022-10-10T17:00:53;16.00;99.90
20479;DHT22;10398;52.490;13.434;2022-10-10T17:03:19;16.00;99.90
20479;DHT22;10398;52.490;13.434;2022-10-10T17:05:44;15.90;99.90
20479;DHT22;10398;52.490;13.434;2022-10-10T17:08:10;15.90;99.90
20479;DHT22;10398;52.490;13.434;2022-10-10T17:10:36;15.80;99.90
20479;DHT22;10398;52.490;13.434;2022-10-10T17:13:02;15.80;99.90
20479;DHT22;10398;52.490;13.434;2022-10-10T17:15:27;15.80;99.90
20479;DHT22;10398;52.490;13.434;2022-10-10T17:17:53;15.80;99.90